createdAt,value
2019-02-27T00:05:10.803Z,6.37
2019-02-27T00:07:40.136Z,6.41
2019-02-27T00:10:09.647Z,6.39
2019-02-27T00:12:38.953Z,6.20
2019-02-27T00:15:08.502Z,6.22
2019-02-27T00:17:37.848Z,6.19
2019-02-27T00:23:09.379Z,6.20
2019-02-27T00:25:38.689Z,6.32
2019-02-27T00:28:07.994Z,6.17
2019-02-27T00:30:38.135Z,6.09
2019-02-27T00:33:28.459Z,6.13
2019-02-27T00:36:14.831Z,6.08
2019-02-27T00:38:43.348Z,6.00
2019-02-27T00:41:13.066Z,6.20
2019-02-27T00:44:02.019Z,6.06
2019-02-27T00:46:31.408Z,6.18
2019-02-27T00:49:00.717Z,6.13
2019-02-27T00:51:30.024Z,6.04
2019-02-27T00:53:59.348Z,6.12
2019-02-27T00:56:28.651Z,6.19
2019-02-27T00:58:59.873Z,6.11
2019-02-27T01:01:27.381Z,6.16
2019-02-27T01:03:59.256Z,6.13
2019-02-27T01:06:47.569Z,6.24
2019-02-27T01:09:37.207Z,6.26
2019-02-27T01:12:25.268Z,6.15
2019-02-27T01:15:13.663Z,6.27
2019-02-27T01:17:43.006Z,6.31
2019-02-27T01:20:12.563Z,6.27
2019-02-27T01:25:47.622Z,6.24
2019-02-27T01:28:16.930Z,6.32
2019-02-27T01:30:46.245Z,6.24
2019-02-27T01:33:15.560Z,6.20
2019-02-27T01:35:44.906Z,6.27
2019-02-27T01:38:14.225Z,6.33
2019-02-27T01:40:43.539Z,6.26
2019-02-27T01:43:12.998Z,6.24
2019-02-27T01:45:41.401Z,6.28
2019-02-27T01:48:09.891Z,6.25
2019-02-27T01:50:50.176Z,6.27
2019-02-27T01:53:18.578Z,6.13
2019-02-27T01:55:47.893Z,6.17
2019-02-27T01:58:17.208Z,6.10
2019-02-27T02:00:46.525Z,6.13
2019-02-27T02:03:15.846Z,6.07
2019-02-27T02:05:45.355Z,5.97
2019-02-27T02:08:14.781Z,6.15
2019-02-27T02:10:43.195Z,6.09
2019-02-27T02:13:33.474Z,6.04
2019-02-27T02:16:40.933Z,6.09
2019-02-27T02:19:48.974Z,6.05
2019-02-27T02:22:56.223Z,6.16
2019-02-27T02:26:06.158Z,6.07
2019-02-27T02:29:14.310Z,6.11
2019-02-27T02:31:51.753Z,6.14
2019-02-27T02:34:58.946Z,6.03
2019-02-27T02:37:51.622Z,6.03
2019-02-27T02:40:59.659Z,6.10
2019-02-27T02:44:06.861Z,5.95
2019-02-27T02:47:08.221Z,5.93
2019-02-27T02:50:19.223Z,6.13
2019-02-27T02:53:27.280Z,6.08
2019-02-27T02:56:34.516Z,5.94
2019-02-27T02:59:41.674Z,6.04
2019-02-27T03:02:23.561Z,5.99
2019-02-27T03:05:47.350Z,5.99
2019-02-27T03:08:40.471Z,6.05
2019-02-27T03:11:34.232Z,5.91
2019-02-27T03:14:41.486Z,5.97
2019-02-27T03:17:35.658Z,5.91
2019-02-27T03:20:42.796Z,5.97
2019-02-27T03:23:33.784Z,6.00
2019-02-27T03:26:26.653Z,5.96
2019-02-27T03:29:33.967Z,5.89
2019-02-27T03:32:43.805Z,5.87
2019-02-27T03:35:52.019Z,5.89
2019-02-27T03:39:00.320Z,5.87
2019-02-27T03:42:07.715Z,5.99
2019-02-27T03:45:14.862Z,5.95
2019-02-27T03:48:09.630Z,5.93
2019-02-27T03:51:01.111Z,5.83
2019-02-27T03:53:55.226Z,5.94
2019-02-27T03:56:51.059Z,5.94
2019-02-27T03:59:58.200Z,5.91
2019-02-27T04:02:49.472Z,5.92
2019-02-27T04:05:57.511Z,5.89
2019-02-27T04:09:06.163Z,5.97
2019-02-27T04:11:41.492Z,5.98
2019-02-27T04:14:44.139Z,5.93
2019-02-27T04:17:13.445Z,5.99
2019-02-27T04:19:41.860Z,5.94
2019-02-27T04:22:10.252Z,5.79
2019-02-27T04:24:38.725Z,5.85
2019-02-27T04:27:08.023Z,5.80
2019-02-27T04:29:40.847Z,5.82
2019-02-27T04:32:26.538Z,5.72
2019-02-27T04:34:54.958Z,5.74
2019-02-27T04:37:24.275Z,5.78
2019-02-27T04:39:53.628Z,5.80
2019-02-27T04:42:23.012Z,5.88
2019-02-27T04:45:12.418Z,5.91
2019-02-27T04:48:00.582Z,5.82
2019-02-27T04:50:29.887Z,5.88
2019-02-27T04:52:59.204Z,5.77
2019-02-27T04:55:28.523Z,5.62
2019-02-27T04:57:57.835Z,5.70
2019-02-27T05:00:27.153Z,5.67
2019-02-27T05:02:56.484Z,5.62
2019-02-27T05:05:25.800Z,5.71
2019-02-27T05:07:54.894Z,5.65
2019-02-27T05:10:43.440Z,5.60
2019-02-27T05:13:12.767Z,5.57
2019-02-27T05:15:42.075Z,5.63
2019-02-27T05:18:11.387Z,5.52
2019-02-27T05:20:44.806Z,5.52
2019-02-27T05:23:30.869Z,5.45
2019-02-27T05:26:19.148Z,5.45
2019-02-27T05:28:48.472Z,5.48
2019-02-27T05:31:19.006Z,5.38
2019-02-27T05:34:06.993Z,5.53
2019-02-27T05:36:35.402Z,5.44
2019-02-27T05:39:05.745Z,5.53
2019-02-27T05:44:36.000Z,5.47
2019-02-27T05:47:05.315Z,5.39
2019-02-27T05:49:34.660Z,5.38
2019-02-27T05:52:03.973Z,5.33
2019-02-27T05:54:33.293Z,5.31
2019-02-27T05:57:02.614Z,5.38
2019-02-27T05:59:31.923Z,5.41
2019-02-27T06:02:01.259Z,5.39
2019-02-27T06:04:30.562Z,5.36
2019-02-27T06:06:59.878Z,5.39
2019-02-27T06:09:29.184Z,5.49
2019-02-27T06:11:57.673Z,5.38
2019-02-27T06:14:26.179Z,5.46
2019-02-27T06:16:55.489Z,5.40
2019-02-27T06:19:24.786Z,5.26
2019-02-27T06:21:56.356Z,5.41
2019-02-27T06:24:45.577Z,5.33
2019-02-27T06:27:32.556Z,5.33
2019-02-27T06:30:01.881Z,5.35
2019-02-27T06:32:31.196Z,5.35
2019-02-27T06:34:59.984Z,5.42
2019-02-27T06:37:50.769Z,5.32
2019-02-27T06:40:42.045Z,5.35
2019-02-27T06:43:27.873Z,5.48
2019-02-27T06:46:17.383Z,5.36
2019-02-27T06:49:05.682Z,5.34
2019-02-27T06:51:35.874Z,5.33
2019-02-27T06:54:24.215Z,5.49
2019-02-27T06:56:52.659Z,5.45
2019-02-27T06:59:24.627Z,5.48
2019-02-27T07:02:10.332Z,5.60
2019-02-27T07:04:39.456Z,5.66
2019-02-27T07:07:28.776Z,5.63
2019-02-27T07:10:20.006Z,5.68
2019-02-27T07:12:47.839Z,5.61
2019-02-27T07:15:17.355Z,5.66
2019-02-27T07:17:45.994Z,5.64
2019-02-27T07:20:15.432Z,5.75
2019-02-27T07:22:46.512Z,5.68
2019-02-27T07:25:14.566Z,5.66
2019-02-27T07:27:43.079Z,5.63
2019-02-27T07:30:13.865Z,5.74
2019-02-27T07:32:42.294Z,5.70
2019-02-27T07:35:11.763Z,5.81
2019-02-27T07:37:41.201Z,5.76
2019-02-27T07:40:12.049Z,5.73
2019-02-27T07:42:41.464Z,5.90
2019-02-27T07:45:13.153Z,5.89
2019-02-27T07:47:41.660Z,5.93
2019-02-27T07:50:12.781Z,5.96
2019-02-27T07:52:41.147Z,6.00
2019-02-27T07:55:21.300Z,6.02
2019-02-27T07:57:41.753Z,5.98
2019-02-27T08:00:15.138Z,6.01
2019-02-27T08:02:44.346Z,6.01
2019-02-27T08:05:13.770Z,5.95
2019-02-27T08:07:43.190Z,5.89
2019-02-27T08:10:14.716Z,5.94
2019-02-27T08:12:43.125Z,5.93
2019-02-27T08:15:13.664Z,5.98
2019-02-27T08:17:42.344Z,6.00
2019-02-27T08:23:15.543Z,6.00
2019-02-27T08:26:05.193Z,5.89
2019-02-27T08:28:53.066Z,5.89
2019-02-27T08:31:22.408Z,5.98
2019-02-27T08:33:50.826Z,6.02
2019-02-27T08:36:20.134Z,6.03
2019-02-27T08:38:49.477Z,6.02
2019-02-27T08:41:17.896Z,6.10
2019-02-27T08:43:46.332Z,6.16
2019-02-27T08:46:15.639Z,6.23
2019-02-27T08:48:44.954Z,6.15
2019-02-27T08:51:14.289Z,6.11
2019-02-27T08:53:43.608Z,6.08
2019-02-27T08:56:12.992Z,6.10
2019-02-27T08:58:42.271Z,6.07
2019-02-27T09:01:11.912Z,6.07
2019-02-27T09:03:40.348Z,6.05
2019-02-27T09:06:08.874Z,6.13
2019-02-27T09:08:38.197Z,6.12
2019-02-27T09:11:07.518Z,6.18
2019-02-27T09:13:36.826Z,6.23
2019-02-27T09:16:05.326Z,6.16
2019-02-27T09:18:36.451Z,6.13
2019-02-27T09:21:24.951Z,6.08
2019-02-27T09:24:13.154Z,6.12
2019-02-27T09:26:42.399Z,6.03
2019-02-27T09:29:30.955Z,6.14
2019-02-27T09:32:00.272Z,6.09
2019-02-27T09:34:29.624Z,5.98
2019-02-27T09:36:58.923Z,5.96
2019-02-27T09:39:31.246Z,5.97
2019-02-27T09:42:19.128Z,6.02
2019-02-27T09:45:35.117Z,6.12
2019-02-27T09:48:04.139Z,6.11
2019-02-27T09:50:37.389Z,6.12
2019-02-27T09:53:06.041Z,6.15
2019-02-27T09:55:35.390Z,6.17
2019-02-27T09:58:10.039Z,6.11
2019-02-27T10:01:00.294Z,6.06
2019-02-27T10:03:28.162Z,6.17
2019-02-27T10:05:57.525Z,6.18
2019-02-27T10:08:26.847Z,6.23
2019-02-27T10:10:56.160Z,6.13
2019-02-27T10:13:24.608Z,6.23
2019-02-27T10:15:53.047Z,6.30
2019-02-27T10:18:22.389Z,6.26
2019-02-27T10:20:51.704Z,6.23
2019-02-27T10:23:21.043Z,6.31
2019-02-27T10:25:50.402Z,6.43
2019-02-27T10:28:19.723Z,6.58
2019-02-27T10:30:49.945Z,6.68
2019-02-27T10:33:38.283Z,6.59
2019-02-27T10:36:07.622Z,6.60
2019-02-27T10:38:40.262Z,6.56
2019-02-27T10:41:25.338Z,6.83
2019-02-27T10:43:56.492Z,6.86
2019-02-27T10:46:43.888Z,7.02
2019-02-27T10:49:13.199Z,7.03
2019-02-27T10:51:43.742Z,7.13
2019-02-27T10:54:12.944Z,7.21
2019-02-27T10:56:42.263Z,7.22
2019-02-27T10:59:10.787Z,7.09
2019-02-27T11:01:40.124Z,7.10
2019-02-27T11:04:09.450Z,7.28
2019-02-27T11:06:38.402Z,7.40
2019-02-27T11:12:17.572Z,7.97
2019-02-27T11:14:46.093Z,7.88
2019-02-27T11:17:15.416Z,7.86
2019-02-27T11:19:44.748Z,7.96
2019-02-27T11:22:14.060Z,7.96
2019-02-27T11:24:43.390Z,8.27
2019-02-27T11:27:12.711Z,8.25
2019-02-27T11:29:42.026Z,8.16
2019-02-27T11:32:10.439Z,8.26
2019-02-27T11:34:38.963Z,8.08
2019-02-27T11:37:12.705Z,8.09
2019-02-27T11:39:56.611Z,7.88
2019-02-27T11:42:25.969Z,7.67
2019-02-27T11:44:55.297Z,7.69
2019-02-27T11:47:23.830Z,7.81
2019-02-27T11:49:53.200Z,7.77
2019-02-27T11:52:21.720Z,7.69
2019-02-27T15:38:32.272Z,7.16
2019-02-27T15:41:03.165Z,7.16
2019-02-27T15:43:59.834Z,7.11
2019-02-27T15:46:40.096Z,7.11
2019-02-27T15:49:09.413Z,7.04
2019-02-27T15:51:38.025Z,7.12
2019-02-27T15:54:06.690Z,7.03
2019-02-27T15:56:36.020Z,7.07
2019-02-27T15:59:08.110Z,6.92
2019-02-27T16:01:54.556Z,7.05
2019-02-27T16:04:24.113Z,6.99
2019-02-27T16:06:53.444Z,7.07
2019-02-27T16:09:22.778Z,7.08
2019-02-27T16:11:52.430Z,7.12
2019-02-27T16:14:42.850Z,6.96
2019-02-27T16:17:31.419Z,6.89
2019-02-27T16:20:19.280Z,6.98
2019-02-27T16:22:48.616Z,6.93
2019-02-27T16:25:19.940Z,7.01
2019-02-27T16:28:11.472Z,6.85
2019-02-27T16:30:57.519Z,6.84
2019-02-27T16:33:28.552Z,6.77
2019-02-27T16:36:16.450Z,6.83
2019-02-27T16:39:07.390Z,6.77
2019-02-27T16:41:54.975Z,6.79
2019-02-27T16:44:24.292Z,6.87
2019-02-27T16:46:53.619Z,6.94
2019-02-27T16:49:22.960Z,6.81
2019-02-27T16:51:52.270Z,6.72
2019-02-27T16:54:20.990Z,6.58
2019-02-27T16:56:51.046Z,6.57
2019-02-27T16:59:42.261Z,6.65
2019-02-27T17:02:28.743Z,6.65
2019-02-27T17:04:58.065Z,6.62
2019-02-27T17:07:27.378Z,6.64
2019-02-27T17:09:56.698Z,6.71
2019-02-27T17:12:26.023Z,6.72
2019-02-27T17:14:58.391Z,6.75
2019-02-27T17:17:44.560Z,6.74
2019-02-27T17:20:14.674Z,6.71
2019-02-27T17:22:43.594Z,6.62
2019-02-27T17:25:12.364Z,6.68
2019-02-27T17:27:41.802Z,6.78
2019-02-27T17:30:14.635Z,6.68
2019-02-27T17:32:43.698Z,6.78
2019-02-27T17:37:56.054Z,6.64
2019-02-27T17:40:24.889Z,6.61
2019-02-27T17:42:54.506Z,6.69
2019-02-27T17:45:23.271Z,6.66
2019-02-27T17:47:52.657Z,6.59
2019-02-27T17:50:22.176Z,6.48
2019-02-27T17:52:51.693Z,6.59
2019-02-27T17:55:21.005Z,6.53
2019-02-27T17:57:50.342Z,6.58
2019-02-27T18:03:22.640Z,6.40
2019-02-27T18:05:51.961Z,6.58
2019-02-27T18:08:21.280Z,6.64
2019-02-27T18:10:50.646Z,6.48
2019-02-27T18:13:19.974Z,6.37
2019-02-27T18:15:49.354Z,6.47
2019-02-27T18:18:18.679Z,6.40
2019-02-27T18:20:47.398Z,6.46
2019-02-27T18:23:16.006Z,6.42
2019-02-27T18:25:45.324Z,6.43
2019-02-27T18:28:14.691Z,6.45
2019-02-27T18:30:44.111Z,6.49
2019-02-27T18:33:14.801Z,6.53
2019-02-27T18:36:15.742Z,6.51
2019-02-27T18:38:44.459Z,6.48
2019-02-27T18:41:14.488Z,6.49
2019-02-27T18:44:04.682Z,6.41
2019-02-27T18:46:52.234Z,6.31
2019-02-27T18:49:21.560Z,6.45
2019-02-27T18:51:50.216Z,6.37
2019-02-27T18:54:21.700Z,6.23
2019-02-27T18:57:07.951Z,6.39
2019-02-27T18:59:37.262Z,6.28
2019-02-27T19:02:27.752Z,6.29
2019-02-27T19:04:57.084Z,6.35
2019-02-27T19:07:26.412Z,6.35
2019-02-27T19:09:55.740Z,6.30
2019-02-27T19:12:28.531Z,6.38
2019-02-27T19:18:18.392Z,6.31
2019-02-27T19:20:47.708Z,6.24
2019-02-27T19:23:18.352Z,6.25
2019-02-27T19:26:09.409Z,6.37
2019-02-27T19:28:36.866Z,6.24
2019-02-27T19:31:05.592Z,6.30
2019-02-27T19:33:35.788Z,6.12
2019-02-27T19:36:24.136Z,6.07
2019-02-27T19:38:52.751Z,6.04
2019-02-27T19:41:21.357Z,5.96
2019-02-27T19:43:54.940Z,5.95
2019-02-27T19:46:39.203Z,5.91
2019-02-27T19:49:08.519Z,6.07
2019-02-27T19:51:37.838Z,6.03
2019-02-27T19:54:07.260Z,6.03
2019-02-27T19:56:36.574Z,6.05
2019-02-27T19:59:06.093Z,6.20
2019-02-27T20:01:34.793Z,6.18
2019-02-27T20:04:03.403Z,6.10
2019-02-27T20:06:32.051Z,6.13
2019-02-27T20:09:01.371Z,6.26
2019-02-27T20:14:14.160Z,6.20
2019-02-27T20:16:43.666Z,6.06
2019-02-27T20:19:21.988Z,6.15
2019-02-27T20:22:02.175Z,6.13
2019-02-27T20:24:32.458Z,6.03
2019-02-27T20:27:21.028Z,6.06
2019-02-27T20:29:49.739Z,6.00
2019-02-27T20:32:19.079Z,6.03
2019-02-27T20:34:48.455Z,6.02
2019-02-27T20:37:17.882Z,6.01
2019-02-27T20:39:46.699Z,6.05
2019-02-27T20:42:15.342Z,5.99
2019-02-27T20:44:44.652Z,5.97
2019-02-27T20:47:13.370Z,5.97
2019-02-27T20:49:44.730Z,5.95
2019-02-27T20:52:31.910Z,5.97
2019-02-27T20:55:01.224Z,5.80
2019-02-27T20:57:30.560Z,5.85
2019-02-27T21:00:02.152Z,5.86
2019-02-27T21:02:50.367Z,5.78
2019-02-27T21:05:41.098Z,5.71
2019-02-27T21:08:27.659Z,5.76
2019-02-27T21:10:56.999Z,5.70
2019-02-27T21:13:26.301Z,5.80
2019-02-27T21:15:55.629Z,5.54
2019-02-27T21:18:25.158Z,5.77
2019-02-27T21:20:54.475Z,5.69
2019-02-27T21:23:23.932Z,5.68
2019-02-27T21:25:53.253Z,5.66
2019-02-27T21:28:22.568Z,5.59
2019-02-27T21:30:52.465Z,5.66
2019-02-27T21:33:21.815Z,5.68
2019-02-27T21:35:50.519Z,5.64
2019-02-27T21:38:19.841Z,5.79
2019-02-27T21:40:48.457Z,5.67
2019-02-27T21:43:17.775Z,5.76
2019-02-27T21:45:47.102Z,5.78
2019-02-27T21:48:16.516Z,5.71
2019-02-27T21:50:45.862Z,5.73
2019-02-27T21:53:14.772Z,5.78
2019-02-27T21:55:44.918Z,5.80
2019-02-27T21:58:33.337Z,5.89
2019-02-27T22:01:02.991Z,5.86
2019-02-27T22:03:31.599Z,5.91
2019-02-27T22:06:00.217Z,5.81
2019-02-27T22:08:29.584Z,5.95
2019-02-27T22:10:58.203Z,5.84
2019-02-27T22:13:30.295Z,5.97
2019-02-27T22:15:58.061Z,5.99
2019-02-27T22:18:26.766Z,5.95
2019-02-27T22:20:59.423Z,5.92
2019-02-27T22:23:28.330Z,5.87
2019-02-27T22:26:15.999Z,5.95
2019-02-27T22:28:45.310Z,5.93
2019-02-27T22:31:13.962Z,5.88
2019-02-27T22:33:42.464Z,5.88
2019-02-27T22:36:12.771Z,5.93
2019-02-27T22:41:44.472Z,6.02
2019-02-27T22:44:13.967Z,5.88
2019-02-27T22:46:43.304Z,5.93
2019-02-27T22:54:38.386Z,5.84
2019-02-27T22:57:07.702Z,5.76
2019-02-27T22:59:37.414Z,5.92
2019-02-27T23:02:25.686Z,5.69
2019-02-27T23:04:54.286Z,5.54
2019-02-27T23:07:23.647Z,5.59
2019-02-27T23:12:55.258Z,5.42
2019-02-27T23:18:27.444Z,5.39
2019-02-27T23:20:56.171Z,5.27
2019-02-27T23:23:25.583Z,5.15
2019-02-27T23:25:55.031Z,5.30
2019-02-27T23:28:24.352Z,5.18
2019-02-27T23:30:53.766Z,5.20
2019-02-27T23:33:24.688Z,5.22
2019-02-27T23:36:12.290Z,5.18
2019-02-27T23:38:41.619Z,5.14
2019-02-27T23:41:10.925Z,5.20
2019-02-27T23:43:39.529Z,5.27
2019-02-27T23:46:08.130Z,5.10
2019-02-27T23:48:37.501Z,5.14
2019-02-27T23:51:06.810Z,5.13
2019-02-27T23:53:36.123Z,5.06
2019-02-27T23:56:05.466Z,5.11
2019-02-27T23:58:34.779Z,5.16
